createdAt,value
2019-04-10T00:01:19.782Z,6.80
2019-04-10T00:03:48.490Z,6.23
2019-04-10T00:06:18.579Z,6.83
2019-04-10T00:08:47.391Z,6.33
2019-04-10T00:11:16.557Z,6.60
2019-04-10T00:13:45.379Z,6.60
2019-04-10T00:16:14.081Z,6.30
2019-04-10T00:18:42.846Z,5.90
2019-04-10T00:21:11.562Z,6.70
2019-04-10T00:23:40.276Z,6.90
2019-04-10T00:26:13.192Z,6.53
2019-04-10T00:28:41.932Z,6.40
2019-04-10T00:31:17.928Z,6.37
2019-04-10T00:33:47.217Z,5.93
2019-04-10T00:36:16.262Z,6.00
2019-04-10T00:38:44.933Z,5.90
2019-04-10T00:41:14.194Z,5.77
2019-04-10T00:43:43.477Z,6.20
2019-04-10T00:46:12.207Z,5.57
2019-04-10T00:48:41.775Z,5.47
2019-04-10T00:51:15.198Z,5.37
2019-04-10T00:53:43.947Z,5.13
2019-04-10T00:56:14.598Z,5.07
2019-04-10T00:58:43.711Z,4.80
2019-04-10T01:01:13.875Z,5.23
2019-04-10T01:03:48.131Z,4.73
2019-04-10T01:06:16.049Z,5.10
2019-04-10T01:08:44.869Z,4.63
2019-04-10T01:11:13.551Z,4.43
2019-04-10T01:13:43.131Z,4.60
2019-04-10T01:16:13.363Z,4.50
2019-04-10T01:18:42.076Z,4.33
2019-04-10T01:21:11.132Z,4.97
2019-04-10T01:23:39.924Z,4.67
2019-04-10T01:26:16.713Z,4.60
2019-04-10T01:28:45.479Z,4.33
2019-04-10T01:31:15.134Z,4.30
2019-04-10T01:33:45.894Z,4.17
2019-04-10T01:36:15.099Z,4.60
2019-04-10T01:38:44.169Z,4.50
2019-04-10T01:41:12.925Z,4.30
2019-04-10T01:43:41.689Z,3.70
2019-04-10T01:46:10.387Z,3.97
2019-04-10T01:48:39.723Z,4.10
2019-04-10T01:51:13.485Z,3.93
2019-04-10T01:53:42.179Z,3.97
2019-04-10T01:56:23.936Z,3.73
2019-04-10T01:58:47.684Z,4.00
2019-04-10T02:01:26.956Z,3.83
2019-04-10T02:03:55.679Z,3.50
2019-04-10T02:06:25.311Z,3.90
2019-04-10T02:08:54.406Z,3.53
2019-04-10T02:11:23.947Z,3.90
2019-04-10T02:13:53.892Z,3.93
2019-04-10T02:16:22.899Z,3.70
2019-04-10T02:18:54.062Z,3.57
2019-04-10T02:21:23.461Z,4.20
2019-04-10T02:23:52.436Z,3.60
2019-04-10T02:26:21.335Z,3.83
2019-04-10T02:28:50.055Z,3.97
2019-04-10T02:31:19.658Z,3.67
2019-04-10T02:33:49.729Z,3.67
2019-04-10T02:36:19.472Z,4.13
2019-04-10T02:38:59.306Z,4.07
2019-04-10T02:41:19.351Z,3.93
2019-04-10T02:43:48.125Z,4.33
2019-04-10T02:46:16.833Z,3.43
2019-04-10T02:48:45.559Z,3.87
2019-04-10T02:51:15.478Z,3.73
2019-04-10T02:53:46.005Z,3.83
2019-04-10T02:56:16.452Z,3.40
2019-04-10T02:58:47.022Z,3.83
2019-04-10T03:01:15.830Z,4.80
2019-04-10T03:03:44.722Z,5.70
2019-04-10T03:06:15.485Z,5.17
2019-04-10T03:09:00.445Z,9.10
2019-04-10T03:11:16.900Z,5.57
2019-04-10T03:13:45.321Z,6.37
2019-04-10T03:16:15.968Z,8.80
2019-04-10T03:18:45.193Z,7.07
2019-04-10T03:21:15.253Z,5.80
2019-04-10T03:23:45.384Z,5.40
2019-04-10T03:26:19.517Z,5.37
2019-04-10T03:28:49.299Z,5.47
2019-04-10T03:31:20.120Z,5.37
2019-04-10T03:33:58.462Z,5.63
2019-04-10T03:36:29.504Z,5.77
2019-04-10T03:39:02.014Z,6.03
2019-04-10T03:41:28.630Z,6.27
2019-04-10T03:43:58.219Z,7.00
2019-04-10T03:46:27.708Z,7.67
2019-04-10T03:48:57.683Z,8.17
2019-04-10T03:51:26.556Z,9.70
2019-04-10T03:53:56.349Z,8.73
2019-04-10T03:56:25.674Z,10.50
2019-04-10T03:58:54.435Z,9.87
2019-04-10T04:01:23.149Z,10.83
2019-04-10T04:03:51.863Z,12.27
2019-04-10T04:06:21.686Z,10.53
2019-04-10T04:09:01.542Z,13.10
2019-04-10T04:11:21.790Z,11.57
2019-04-10T04:13:50.562Z,14.00
2019-04-10T04:16:19.281Z,11.07
2019-04-10T04:18:48.983Z,10.80
2019-04-10T04:21:17.998Z,9.53
2019-04-10T04:23:46.896Z,9.73
2019-04-10T04:26:15.560Z,10.63
2019-04-10T04:28:44.273Z,10.67
2019-04-10T04:31:14.111Z,13.43
2019-04-10T04:33:42.827Z,12.60
2019-04-10T04:36:12.342Z,11.17
2019-04-10T04:38:41.205Z,11.53
2019-04-10T04:41:09.928Z,12.10
2019-04-10T04:43:39.184Z,11.47
2019-04-10T04:46:16.174Z,11.77
2019-04-10T04:48:45.379Z,11.10
2019-04-10T04:51:15.426Z,11.63
2019-04-10T04:53:44.309Z,11.70
2019-04-10T04:56:13.023Z,11.53
2019-04-10T04:58:41.730Z,11.50
2019-04-10T05:01:16.961Z,12.80
2019-04-10T05:03:46.378Z,13.67
2019-04-10T05:06:16.089Z,17.63
2019-04-10T05:08:44.834Z,17.20
2019-04-10T05:11:13.911Z,16.00
2019-04-10T05:13:42.751Z,15.87
2019-04-10T05:16:12.927Z,15.50
2019-04-10T05:18:41.646Z,13.40
2019-04-10T05:21:10.644Z,15.87
2019-04-10T05:23:39.412Z,16.17
2019-04-10T05:26:08.218Z,16.10
2019-04-10T05:28:36.936Z,13.80
2019-04-10T05:31:15.174Z,15.17
2019-04-10T05:33:44.773Z,16.47
2019-04-10T05:36:13.672Z,15.10
2019-04-10T05:38:42.463Z,14.37
2019-04-10T05:41:11.246Z,15.80
2019-04-10T05:43:39.977Z,13.80
2019-04-10T05:46:14.430Z,17.63
2019-04-10T05:48:44.124Z,15.67
2019-04-10T05:51:12.931Z,14.27
2019-04-10T05:53:41.689Z,13.33
2019-04-10T05:56:10.403Z,15.93
2019-04-10T05:58:39.120Z,15.10
2019-04-10T06:01:13.754Z,15.33
2019-04-10T06:03:42.831Z,13.53
2019-04-10T06:06:12.525Z,13.30
2019-04-10T06:08:41.532Z,12.63
2019-04-10T06:11:10.744Z,13.20
2019-04-10T06:13:39.509Z,13.50
2019-04-10T06:16:13.637Z,13.60
2019-04-10T06:18:43.071Z,13.53
2019-04-10T06:21:12.532Z,14.50
2019-04-10T06:23:41.673Z,14.60
2019-04-10T06:26:10.414Z,13.33
2019-04-10T06:28:40.115Z,15.03
2019-04-10T06:31:14.887Z,14.93
2019-04-10T06:33:44.415Z,14.10
2019-04-10T06:36:13.276Z,13.43
2019-04-10T06:38:43.228Z,13.47
2019-04-10T06:41:13.731Z,13.97
2019-04-10T06:43:43.419Z,13.90
2019-04-10T06:46:14.515Z,13.80
2019-04-10T06:48:44.505Z,13.13
2019-04-10T06:51:13.278Z,14.03
2019-04-10T06:53:42.031Z,13.10
2019-04-10T06:56:11.258Z,13.33
2019-04-10T06:58:41.038Z,14.00
2019-04-10T07:01:16.657Z,14.40
2019-04-10T07:03:55.774Z,19.03
2019-04-10T07:06:20.780Z,15.97
2019-04-10T07:08:50.198Z,14.60
2019-04-10T07:11:18.544Z,14.60
2019-04-10T07:13:47.477Z,13.97
2019-04-10T07:16:16.186Z,13.63
2019-04-10T07:18:47.804Z,13.70
2019-04-10T07:21:15.384Z,14.07
2019-04-10T07:23:44.972Z,13.73
2019-04-10T07:26:17.715Z,14.67
2019-04-10T07:28:46.392Z,15.37
2019-04-10T07:31:17.351Z,21.93
2019-04-10T07:33:50.020Z,17.43
2019-04-10T07:36:16.604Z,15.80
2019-04-10T07:38:45.321Z,18.00
2019-04-10T07:41:20.883Z,19.00
2019-04-10T07:43:44.820Z,16.57
2019-04-10T07:46:13.514Z,16.40
2019-04-10T07:48:43.534Z,16.97
2019-04-10T07:51:13.497Z,17.20
2019-04-10T07:53:43.500Z,22.13
2019-04-10T07:56:18.001Z,23.03
2019-04-10T07:58:44.068Z,27.53
2019-04-10T08:01:14.577Z,25.87
2019-04-10T08:03:43.828Z,29.37
2019-04-10T08:06:13.132Z,26.30
2019-04-10T08:08:42.633Z,31.83
2019-04-10T08:11:11.578Z,31.13
2019-04-10T08:13:40.710Z,25.57
2019-04-10T08:16:10.574Z,23.23
2019-04-10T08:18:39.528Z,20.23
2019-04-10T08:21:13.883Z,18.40
2019-04-10T08:23:42.598Z,19.17
2019-04-10T08:26:14.417Z,19.70
2019-04-10T08:28:43.383Z,17.90
2019-04-10T08:31:15.424Z,17.60
2019-04-10T08:33:44.192Z,17.57
2019-04-10T08:36:13.026Z,18.40
2019-04-10T08:38:42.138Z,18.20
2019-04-10T08:41:14.995Z,17.03
2019-04-10T08:43:43.891Z,17.23
2019-04-10T08:46:17.687Z,18.30
2019-04-10T08:48:47.653Z,16.33
2019-04-10T08:51:17.089Z,16.33
2019-04-10T08:53:46.726Z,17.70
2019-04-10T08:56:16.237Z,19.63
2019-04-10T08:58:45.383Z,23.50
2019-04-10T09:01:15.405Z,20.40
2019-04-10T09:03:44.155Z,17.63
2019-04-10T09:06:13.627Z,17.30
2019-04-10T09:08:43.487Z,19.50
2019-04-10T09:11:12.330Z,18.83
2019-04-10T09:13:41.067Z,20.43
2019-04-10T09:16:10.072Z,17.67
2019-04-10T09:18:39.109Z,16.37
2019-04-10T09:21:07.960Z,19.83
2019-04-10T09:23:44.770Z,19.50
2019-04-10T09:26:16.235Z,19.50
2019-04-10T09:28:44.937Z,22.60
2019-04-10T09:31:16.110Z,27.23
2019-04-10T09:33:45.310Z,25.20
2019-04-10T09:36:15.163Z,21.70
2019-04-10T09:38:45.450Z,21.47
2019-04-10T09:41:14.172Z,23.20
2019-04-10T09:43:42.889Z,22.83
2019-04-10T09:46:13.727Z,20.80
2019-04-10T09:48:42.446Z,20.87
2019-04-10T09:51:16.812Z,24.37
2019-04-10T09:53:45.440Z,38.53
2019-04-10T09:56:14.423Z,31.30
2019-04-10T09:58:43.186Z,23.27
2019-04-10T10:01:15.228Z,21.67
2019-04-10T10:03:44.781Z,19.07
2019-04-10T10:06:24.295Z,21.97
2019-04-10T10:08:47.974Z,34.53
2019-04-10T10:11:18.060Z,20.27
2019-04-10T10:13:48.143Z,22.13
2019-04-10T10:16:17.087Z,20.90
2019-04-10T10:18:45.836Z,20.50
2019-04-10T10:21:14.546Z,22.77
2019-04-10T10:23:44.612Z,23.33
2019-04-10T10:26:13.738Z,22.07
2019-04-10T10:28:42.961Z,26.20
2019-04-10T10:31:11.851Z,22.90
2019-04-10T10:33:41.697Z,21.70
2019-04-10T10:36:11.580Z,22.27
2019-04-10T10:38:40.587Z,21.50
2019-04-10T10:41:09.299Z,21.27
2019-04-10T10:43:38.018Z,19.27
2019-04-10T10:46:13.833Z,18.77
2019-04-10T10:48:42.543Z,20.70
2019-04-10T10:51:14.887Z,35.90
2019-04-10T10:53:44.078Z,22.07
2019-04-10T10:56:13.924Z,19.60
2019-04-10T10:58:42.672Z,24.17
2019-04-10T11:01:11.623Z,21.90
2019-04-10T11:03:40.550Z,23.73
2019-04-10T11:06:09.301Z,22.63
2019-04-10T11:08:38.018Z,17.93
2019-04-10T11:11:14.451Z,16.77
2019-04-10T11:13:43.334Z,18.47
2019-04-10T11:16:14.403Z,16.73
2019-04-10T11:18:43.431Z,16.00
2019-04-10T11:21:12.756Z,17.27
2019-04-10T11:23:42.411Z,15.93
2019-04-10T11:26:12.846Z,15.97
2019-04-10T11:28:41.984Z,19.10
2019-04-10T11:31:13.431Z,18.97
2019-04-10T11:33:43.853Z,16.93
2019-04-10T11:36:13.859Z,17.13
2019-04-10T11:38:44.952Z,16.90
2019-04-10T11:41:15.016Z,21.10
2019-04-10T11:43:45.043Z,18.77
2019-04-10T11:46:14.261Z,18.90
2019-04-10T11:48:45.500Z,17.47
2019-04-10T11:51:14.302Z,16.27
2019-04-10T11:53:45.408Z,17.23
2019-04-10T11:56:19.148Z,16.93
2019-04-10T11:58:52.593Z,17.13
2019-04-10T12:01:21.062Z,16.80
2019-04-10T12:03:51.486Z,17.23
2019-04-10T12:06:21.271Z,17.43
2019-04-10T12:09:13.162Z,16.53
2019-04-10T12:11:20.651Z,36.37
2019-04-10T12:13:50.491Z,31.80
2019-04-10T12:16:19.503Z,41.20
2019-04-10T12:18:48.893Z,52.43
2019-04-10T12:21:17.849Z,26.17
2019-04-10T12:23:47.348Z,24.00
2019-04-10T12:26:16.372Z,26.40
2019-04-10T12:28:45.092Z,22.57
2019-04-10T12:31:13.813Z,21.33
2019-04-10T12:33:42.568Z,23.93
2019-04-10T12:36:12.162Z,23.43
2019-04-10T12:38:41.601Z,26.80
2019-04-10T12:41:15.219Z,32.77
2019-04-10T12:43:43.924Z,27.20
2019-04-10T12:46:14.934Z,18.10
2019-04-10T12:48:43.852Z,31.47
2019-04-10T12:51:13.797Z,17.67
2019-04-10T12:53:43.575Z,17.73
2019-04-10T12:56:13.661Z,17.30
2019-04-10T12:58:42.647Z,19.10
2019-04-10T13:01:14.245Z,18.90
2019-04-10T13:03:43.253Z,17.30
2019-04-10T13:06:14.144Z,20.60
2019-04-10T13:08:57.138Z,38.43
2019-04-10T13:11:13.313Z,45.87
2019-04-10T13:13:42.246Z,34.30
2019-04-10T13:16:14.165Z,49.77
2019-04-10T13:18:42.906Z,26.13
2019-04-10T13:21:12.530Z,13.87
2019-04-10T13:23:41.357Z,30.50
2019-04-10T13:26:10.887Z,22.23
2019-04-10T13:28:39.662Z,19.17
2019-04-10T13:31:14.642Z,22.63
2019-04-10T13:33:43.362Z,20.10
2019-04-10T13:36:12.084Z,20.10
2019-04-10T13:38:40.871Z,22.13
2019-04-10T13:41:10.314Z,18.50
2019-04-10T13:43:39.945Z,17.77
2019-04-10T13:46:13.901Z,18.17
2019-04-10T13:48:42.623Z,17.47
2019-04-10T13:51:15.043Z,16.10
2019-04-10T13:53:43.987Z,13.70
2019-04-10T13:56:12.914Z,16.17
2019-04-10T13:58:42.619Z,17.53
2019-04-10T14:01:13.379Z,13.43
2019-04-10T14:03:43.829Z,16.13
2019-04-10T14:06:15.044Z,31.87
2019-04-10T14:09:03.121Z,29.27
2019-04-10T14:11:15.255Z,23.67
2019-04-10T14:13:44.239Z,25.37
2019-04-10T14:16:14.829Z,33.97
2019-04-10T14:18:43.687Z,23.90
2019-04-10T14:21:20.736Z,28.37
2019-04-10T14:23:49.484Z,18.10
2019-04-10T14:26:45.869Z,15.70
2019-04-10T14:29:07.241Z,39.63
2019-04-10T14:31:37.768Z,28.30
2019-04-10T14:34:14.509Z,26.17
2019-04-10T14:36:44.313Z,32.53
2019-04-10T14:39:18.497Z,31.47
2019-04-10T14:41:46.164Z,63.63
2019-04-10T14:44:15.227Z,46.53
2019-04-10T14:46:44.318Z,26.07
2019-04-10T14:49:13.238Z,22.97
2019-04-10T14:51:42.064Z,34.23
2019-04-10T14:54:11.587Z,38.07
2019-04-10T14:56:40.347Z,48.97
2019-04-10T14:59:09.489Z,43.33
2019-04-10T15:01:38.463Z,27.13
2019-04-10T15:04:15.078Z,23.43
2019-04-10T15:06:43.858Z,36.07
2019-04-10T15:09:25.725Z,34.13
2019-04-10T15:11:51.683Z,44.40
2019-04-10T15:14:21.516Z,35.70
2019-04-10T15:16:55.682Z,31.03
2019-04-10T15:19:21.075Z,24.33
2019-04-10T15:21:49.827Z,28.97
2019-04-10T15:24:19.477Z,30.50
2019-04-10T15:26:48.837Z,27.87
2019-04-10T15:29:18.356Z,29.73
2019-04-10T15:31:48.085Z,24.80
2019-04-10T15:34:18.206Z,23.47
2019-04-10T15:36:48.052Z,23.03
2019-04-10T15:39:17.424Z,24.27
2019-04-10T15:41:46.186Z,21.67
2019-04-10T15:44:15.393Z,20.43
2019-04-10T15:46:45.637Z,20.07
2019-04-10T15:49:17.405Z,33.90
2019-04-10T15:51:46.190Z,37.47
2019-04-10T15:54:16.665Z,17.03
2019-04-10T15:56:46.353Z,14.53
2019-04-10T15:59:16.335Z,15.43
2019-04-10T16:01:45.288Z,12.93
2019-04-10T16:04:14.972Z,11.40
2019-04-10T16:06:43.699Z,12.10
2019-04-10T16:09:18.215Z,12.67
2019-04-10T16:11:52.281Z,12.27
2019-04-10T16:14:25.581Z,12.87
2019-04-10T16:16:53.328Z,14.70
2019-04-10T16:19:36.682Z,15.53
2019-04-10T16:22:15.497Z,24.53
2019-04-10T16:24:45.044Z,33.90
2019-04-10T16:27:13.994Z,53.47
2019-04-10T16:29:42.844Z,51.80
2019-04-10T16:32:12.646Z,44.53
2019-04-10T16:34:41.459Z,39.67
2019-04-10T16:37:16.762Z,35.47
2019-04-10T16:39:57.818Z,41.03
2019-04-10T16:42:16.879Z,41.17
2019-04-10T16:44:45.740Z,39.13
2019-04-10T16:47:14.459Z,34.87
2019-04-10T16:49:43.212Z,28.57
2019-04-10T16:52:12.538Z,27.20
2019-04-10T16:54:41.493Z,29.03
2019-04-10T16:57:10.310Z,29.30
2019-04-10T16:59:39.579Z,22.20
2019-04-10T17:02:16.579Z,21.50
2019-04-10T17:04:45.301Z,24.37
2019-04-10T17:07:17.278Z,23.20
2019-04-10T17:09:47.183Z,29.33
2019-04-10T17:12:17.808Z,34.57
2019-04-10T17:14:47.734Z,32.10
2019-04-10T17:17:16.611Z,26.07
2019-04-10T17:19:52.125Z,27.80
2019-04-10T17:22:29.234Z,25.97
2019-04-10T17:24:47.405Z,28.43
2019-04-10T17:27:16.176Z,26.13
2019-04-10T17:29:45.209Z,20.27
2019-04-10T17:32:15.109Z,19.97
2019-04-10T17:34:45.165Z,25.00
2019-04-10T17:37:19.366Z,31.23
2019-04-10T17:39:49.312Z,26.40
2019-04-10T17:42:19.827Z,24.37
2019-04-10T17:44:49.765Z,23.13
2019-04-10T17:47:18.847Z,24.03
2019-04-10T17:49:47.762Z,23.90
2019-04-10T17:52:16.795Z,26.20
2019-04-10T17:54:45.521Z,24.97
2019-04-10T17:57:17.022Z,30.90
2019-04-10T17:59:46.875Z,26.17
2019-04-10T18:02:15.866Z,26.67
2019-04-10T18:04:44.584Z,25.97
2019-04-10T18:07:14.170Z,27.30
2019-04-10T18:09:43.142Z,23.83
2019-04-10T18:12:12.474Z,24.00
2019-04-10T18:14:42.524Z,28.83
2019-04-10T18:17:16.781Z,26.57
2019-04-10T18:19:46.157Z,32.20
2019-04-10T18:22:18.483Z,32.67
2019-04-10T18:24:47.542Z,25.23
2019-04-10T18:27:16.407Z,20.03
2019-04-10T18:29:45.477Z,19.43
2019-04-10T18:32:15.801Z,21.33
2019-04-10T18:34:44.780Z,20.83
2019-04-10T18:37:15.958Z,19.50
2019-04-10T18:39:43.942Z,20.33
2019-04-10T18:42:17.756Z,18.17
2019-04-10T18:44:46.949Z,17.17
2019-04-10T18:47:16.521Z,17.73
2019-04-10T18:49:45.563Z,18.27
2019-04-10T18:52:15.097Z,20.67
2019-04-10T18:54:44.112Z,17.87
2019-04-10T18:57:13.653Z,20.63
2019-04-10T18:59:47.153Z,19.80
2019-04-10T19:02:23.649Z,17.67
2019-04-10T19:04:54.982Z,18.93
2019-04-10T19:07:25.024Z,23.97
2019-04-10T19:09:54.653Z,19.57
2019-04-10T19:12:24.386Z,18.20
2019-04-10T19:14:54.132Z,27.67
2019-04-10T19:17:23.132Z,26.90
2019-04-10T19:19:52.424Z,22.87
2019-04-10T19:22:21.443Z,18.57
2019-04-10T19:24:50.347Z,17.67
2019-04-10T19:27:20.074Z,21.93
2019-04-10T19:29:49.010Z,20.50
2019-04-10T19:32:22.602Z,24.70
2019-04-10T19:34:51.866Z,25.27
2019-04-10T19:37:20.678Z,20.30
2019-04-10T19:39:50.756Z,20.97
2019-04-10T19:42:19.554Z,20.13
2019-04-10T19:44:48.274Z,20.20
2019-04-10T19:47:19.895Z,19.80
2019-04-10T19:49:48.751Z,15.87
2019-04-10T19:52:17.511Z,19.40
2019-04-10T19:54:47.258Z,21.93
2019-04-10T19:57:15.981Z,27.53
2019-04-10T19:59:44.714Z,39.50
2019-04-10T20:02:14.916Z,27.83
2019-04-10T20:04:44.971Z,33.00
2019-04-10T20:07:13.974Z,27.23
2019-04-10T20:09:42.734Z,29.23
2019-04-10T20:12:18.231Z,40.30
2019-04-10T20:14:46.907Z,31.43
2019-04-10T20:17:16.950Z,20.43
2019-04-10T20:19:46.719Z,20.30
2019-04-10T20:22:16.549Z,22.57
2019-04-10T20:24:45.607Z,24.50
2019-04-10T20:27:14.321Z,19.67
2019-04-10T20:29:43.452Z,19.53
2019-04-10T20:32:17.386Z,17.90
2019-04-10T20:34:47.503Z,19.87
2019-04-10T20:37:16.428Z,19.90
2019-04-10T20:39:45.521Z,23.97
2019-04-10T20:42:14.319Z,26.00
2019-04-10T20:44:44.993Z,19.03
2019-04-10T20:47:15.668Z,20.10
2019-04-10T20:49:44.683Z,20.97
2019-04-10T20:52:14.668Z,20.17
2019-04-10T20:54:44.715Z,19.43
2019-04-10T20:57:13.543Z,19.43
2019-04-10T20:59:42.543Z,17.37
2019-04-10T21:02:15.103Z,16.90
2019-04-10T21:04:54.626Z,16.97
2019-04-10T21:07:14.620Z,16.87
2019-04-10T21:09:43.834Z,17.33
2019-04-10T21:12:20.518Z,17.30
2019-04-10T21:14:47.982Z,16.90
2019-04-10T21:17:16.823Z,16.37
2019-04-10T21:19:45.559Z,15.00
2019-04-10T21:22:20.295Z,15.57
2019-04-10T21:24:49.893Z,14.90
2019-04-10T21:27:18.650Z,14.80
2019-04-10T21:29:54.845Z,15.03
2019-04-10T21:32:32.174Z,15.90
2019-04-10T21:35:03.917Z,15.87
2019-04-10T21:37:32.776Z,15.30
2019-04-10T21:40:02.706Z,15.60
2019-04-10T21:42:31.652Z,16.20
2019-04-10T21:45:00.353Z,16.50
2019-04-10T21:47:29.993Z,17.10
2019-04-10T21:49:58.988Z,20.30
2019-04-10T21:52:27.745Z,22.03
2019-04-10T21:55:00.036Z,17.90
2019-04-10T21:57:26.892Z,19.20
2019-04-10T21:59:56.042Z,20.03
2019-04-10T22:02:25.005Z,20.23
2019-04-10T22:04:53.732Z,24.57
2019-04-10T22:07:24.028Z,41.00
2019-04-10T22:09:55.034Z,30.40
2019-04-10T22:12:31.162Z,23.20
2019-04-10T22:14:56.071Z,23.70
2019-04-10T22:17:24.905Z,25.20
2019-04-10T22:19:54.927Z,24.73
2019-04-10T22:22:23.856Z,21.27
2019-04-10T22:24:52.667Z,19.73
2019-04-10T22:27:21.358Z,18.60
2019-04-10T22:29:50.090Z,18.77
2019-04-10T22:32:19.201Z,19.20
2019-04-10T22:34:47.953Z,18.20
2019-04-10T22:37:16.986Z,19.40
2019-04-10T22:39:46.012Z,21.20
2019-04-10T22:42:17.193Z,21.53
2019-04-10T22:44:47.152Z,21.57
2019-04-10T22:47:16.964Z,22.20
2019-04-10T22:49:45.707Z,21.43
2019-04-10T22:52:15.482Z,21.63
2019-04-10T22:54:44.400Z,20.80
2019-04-10T22:57:13.138Z,22.33
2019-04-10T22:59:42.481Z,20.70
2019-04-10T23:02:15.048Z,20.63
2019-04-10T23:04:44.929Z,17.97
2019-04-10T23:07:13.714Z,18.63
2019-04-10T23:09:42.490Z,17.33
2019-04-10T23:12:11.213Z,18.83
2019-04-10T23:14:39.924Z,18.60
2019-04-10T23:17:16.809Z,17.27
2019-04-10T23:19:46.762Z,19.50
2019-04-10T23:22:16.629Z,20.57
2019-04-10T23:24:45.619Z,21.50
2019-04-10T23:27:14.456Z,21.57
2019-04-10T23:29:44.284Z,23.10
2019-04-10T23:32:15.211Z,26.33
2019-04-10T23:34:45.071Z,29.80
2019-04-10T23:37:14.940Z,29.17
2019-04-10T23:39:44.031Z,29.97
2019-04-10T23:42:12.892Z,30.50
2019-04-10T23:44:42.831Z,31.83
2019-04-10T23:47:15.665Z,32.27
2019-04-10T23:49:45.763Z,31.67
2019-04-10T23:52:14.565Z,31.63
2019-04-10T23:54:43.678Z,28.20
2019-04-10T23:57:13.421Z,29.10
2019-04-10T23:59:42.647Z,29.90
